sensor_id;sensor_type;location;lat;lon;timestamp;pressure;altitude;pressure_sealevel;temperature;humidity
53932;BME280;39844;52.496;13.482;2023-05-15T00:01:46;100994.97;;;12.28;72.75
53932;BME280;39844;52.496;13.482;2023-05-15T00:04:12;100993.25;;;12.26;72.33
53932;BME280;39844;52.496;13.482;2023-05-15T00:06:37;100985.41;;;12.23;72.41
53932;BME280;39844;52.496;13.482;2023-05-15T00:09:02;100982.75;;;12.21;72.65
53932;BME280;39844;52.496;13.482;2023-05-15T00:11:28;100982.75;;;12.18;72.42
53932;BME280;39844;52.496;13.482;2023-05-15T00:13:53;100977.53;;;12.14;72.06
53932;BME280;39844;52.496;13.482;2023-05-15T00:16:18;100974.94;;;12.12;72.23
53932;BME280;39844;52.496;13.482;2023-05-15T00:18:44;100968.81;;;12.10;72.50
53932;BME280;39844;52.496;13.482;2023-05-15T00:21:09;100967.06;;;12.08;73.06
53932;BME280;39844;52.496;13.482;2023-05-15T00:23:34;100964.44;;;12.04;73.20
53932;BME280;39844;52.496;13.482;2023-05-15T00:26:00;100961.81;;;12.03;73.61
53932;BME280;39844;52.496;13.482;2023-05-15T00:28:25;100960.09;;;11.99;73.74
53932;BME280;39844;52.496;13.482;2023-05-15T00:30:50;100960.97;;;11.95;73.97
53932;BME280;39844;52.496;13.482;2023-05-15T00:33:16;100953.13;;;11.92;73.93
53932;BME280;39844;52.496;13.482;2023-05-15T00:35:41;100958.41;;;11.89;73.91
53932;BME280;39844;52.496;13.482;2023-05-15T00:38:06;100954.03;;;11.89;74.15
53932;BME280;39844;52.496;13.482;2023-05-15T00:40:32;100948.75;;;11.89;74.04
53932;BME280;39844;52.496;13.482;2023-05-15T00:43:02;100947.88;;;11.89;74.41
53932;BME280;39844;52.496;13.482;2023-05-15T00:45:29;100935.63;;;11.86;74.74
53932;BME280;39844;52.496;13.482;2023-05-15T00:47:56;100937.38;;;11.83;74.61
53932;BME280;39844;52.496;13.482;2023-05-15T00:50:22;100933.00;;;11.80;75.06
53932;BME280;39844;52.496;13.482;2023-05-15T00:52:47;100926.00;;;11.78;75.45
53932;BME280;39844;52.496;13.482;2023-05-15T00:55:13;100922.53;;;11.74;75.03
53932;BME280;39844;52.496;13.482;2023-05-15T00:57:40;100922.53;;;11.73;75.64
53932;BME280;39844;52.496;13.482;2023-05-15T01:00:06;100922.56;;;11.68;75.75
53932;BME280;39844;52.496;13.482;2023-05-15T01:02:32;100926.03;;;11.67;75.95
53932;BME280;39844;52.496;13.482;2023-05-15T01:04:57;100924.28;;;11.65;76.60
53932;BME280;39844;52.496;13.482;2023-05-15T01:07:22;100910.28;;;11.63;76.79
53932;BME280;39844;52.496;13.482;2023-05-15T01:09:48;100914.69;;;11.61;76.46
53932;BME280;39844;52.496;13.482;2023-05-15T01:12:14;100909.44;;;11.59;75.96
53932;BME280;39844;52.496;13.482;2023-05-15T01:14:41;100916.47;;;11.59;76.00
53932;BME280;39844;52.496;13.482;2023-05-15T01:17:06;100905.94;;;11.56;76.50
53932;BME280;39844;52.496;13.482;2023-05-15T01:19:31;100911.22;;;11.53;76.37
53932;BME280;39844;52.496;13.482;2023-05-15T01:22:33;100912.13;;;11.49;76.62
53932;BME280;39844;52.496;13.482;2023-05-15T01:27:53;100917.41;;;11.42;76.29
53932;BME280;39844;52.496;13.482;2023-05-15T01:30:25;100918.28;;;11.40;76.72
53932;BME280;39844;52.496;13.482;2023-05-15T01:32:56;100909.53;;;11.39;78.00
53932;BME280;39844;52.496;13.482;2023-05-15T01:35:34;100912.13;;;11.46;80.02
53932;BME280;39844;52.496;13.482;2023-05-15T01:39:21;100913.88;;;11.48;81.08
53932;BME280;39844;52.496;13.482;2023-05-15T01:44:22;100917.38;;;11.52;83.36
53932;BME280;39844;52.496;13.482;2023-05-15T01:46:50;100907.72;;;11.51;84.02
53932;BME280;39844;52.496;13.482;2023-05-15T01:49:18;100913.00;;;11.49;84.24
53932;BME280;39844;52.496;13.482;2023-05-15T01:51:45;100908.59;;;11.47;84.57
53932;BME280;39844;52.496;13.482;2023-05-15T01:54:12;100902.50;;;11.44;85.30
53932;BME280;39844;52.496;13.482;2023-05-15T01:56:39;100899.88;;;11.43;85.81
53932;BME280;39844;52.496;13.482;2023-05-15T01:59:06;100896.34;;;11.44;85.91
53932;BME280;39844;52.496;13.482;2023-05-15T02:01:32;100891.13;;;11.42;86.06
53932;BME280;39844;52.496;13.482;2023-05-15T02:04:00;100891.97;;;11.41;86.13
53932;BME280;39844;52.496;13.482;2023-05-15T02:06:27;100884.13;;;11.38;86.90
53932;BME280;39844;52.496;13.482;2023-05-15T02:08:55;100885.88;;;11.36;86.33
53932;BME280;39844;52.496;13.482;2023-05-15T02:11:21;100891.16;;;11.35;86.59
53932;BME280;39844;52.496;13.482;2023-05-15T02:13:47;100878.91;;;11.32;86.37
53932;BME280;39844;52.496;13.482;2023-05-15T02:16:13;100882.44;;;11.28;86.36
53932;BME280;39844;52.496;13.482;2023-05-15T02:18:38;100877.16;;;11.27;87.24
53932;BME280;39844;52.496;13.482;2023-05-15T02:21:03;100874.56;;;11.25;87.23
53932;BME280;39844;52.496;13.482;2023-05-15T02:23:29;100874.56;;;11.22;86.83
53932;BME280;39844;52.496;13.482;2023-05-15T02:26:13;100874.56;;;11.19;86.64
53932;BME280;39844;52.496;13.482;2023-05-15T02:28:57;100874.56;;;11.16;86.78
53932;BME280;39844;52.496;13.482;2023-05-15T02:34:04;100883.38;;;11.12;87.45
53932;BME280;39844;52.496;13.482;2023-05-15T02:36:37;100879.00;;;11.10;86.86
53932;BME280;39844;52.496;13.482;2023-05-15T02:39:04;100872.88;;;11.06;86.97
53932;BME280;39844;52.496;13.482;2023-05-15T02:41:31;100879.00;;;11.07;86.90
53932;BME280;39844;52.496;13.482;2023-05-15T02:43:57;100870.28;;;11.03;86.00
53932;BME280;39844;52.496;13.482;2023-05-15T02:46:23;100868.53;;;10.99;85.85
53932;BME280;39844;52.496;13.482;2023-05-15T02:48:49;100869.41;;;10.98;84.95
53932;BME280;39844;52.496;13.482;2023-05-15T02:51:15;100866.78;;;10.97;84.42
53932;BME280;39844;52.496;13.482;2023-05-15T02:53:41;100854.53;;;10.96;84.27
53932;BME280;39844;52.496;13.482;2023-05-15T02:56:07;100858.03;;;10.95;84.54
53932;BME280;39844;52.496;13.482;2023-05-15T02:58:33;100857.16;;;10.91;84.30
53932;BME280;39844;52.496;13.482;2023-05-15T03:00:59;100856.28;;;10.89;84.00
53932;BME280;39844;52.496;13.482;2023-05-15T03:03:24;100851.03;;;10.86;83.87
53932;BME280;39844;52.496;13.482;2023-05-15T03:05:49;100844.06;;;10.82;83.57
53932;BME280;39844;52.496;13.482;2023-05-15T03:08:14;100839.72;;;10.79;83.74
53932;BME280;39844;52.496;13.482;2023-05-15T03:10:40;100841.44;;;10.76;83.64
53932;BME280;39844;52.496;13.482;2023-05-15T03:13:05;100840.59;;;10.74;83.95
53932;BME280;39844;52.496;13.482;2023-05-15T03:15:30;100833.59;;;10.71;83.57
53932;BME280;39844;52.496;13.482;2023-05-15T03:17:56;100838.84;;;10.68;83.64
53932;BME280;39844;52.496;13.482;2023-05-15T03:20:21;100836.25;;;10.67;84.09
53932;BME280;39844;52.496;13.482;2023-05-15T03:22:46;100834.47;;;10.66;83.96
53932;BME280;39844;52.496;13.482;2023-05-15T03:25:12;100823.97;;;10.63;83.80
53932;BME280;39844;52.496;13.482;2023-05-15T03:27:37;100817.88;;;10.62;83.60
53932;BME280;39844;52.496;13.482;2023-05-15T03:30:03;100820.50;;;10.61;83.82
53932;BME280;39844;52.496;13.482;2023-05-15T03:32:29;100817.00;;;10.60;83.95
53932;BME280;39844;52.496;13.482;2023-05-15T03:34:54;100815.25;;;10.61;84.26
53932;BME280;39844;52.496;13.482;2023-05-15T03:37:19;100813.47;;;10.63;84.36
53932;BME280;39844;52.496;13.482;2023-05-15T03:39:45;100815.25;;;10.61;84.44
53932;BME280;39844;52.496;13.482;2023-05-15T03:42:10;100815.25;;;10.61;84.41
53932;BME280;39844;52.496;13.482;2023-05-15T03:44:35;100818.75;;;10.60;83.91
53932;BME280;39844;52.496;13.482;2023-05-15T03:47:01;100822.25;;;10.62;83.65
53932;BME280;39844;52.496;13.482;2023-05-15T03:49:26;100818.72;;;10.66;83.78
53932;BME280;39844;52.496;13.482;2023-05-15T03:51:51;100818.75;;;10.67;83.51
53932;BME280;39844;52.496;13.482;2023-05-15T03:54:17;100816.97;;;10.68;83.96
53932;BME280;39844;52.496;13.482;2023-05-15T03:56:42;100823.13;;;10.70;84.17
53932;BME280;39844;52.496;13.482;2023-05-15T03:59:08;100818.72;;;10.72;84.13
53932;BME280;39844;52.496;13.482;2023-05-15T04:01:33;100819.59;;;10.74;84.26
53932;BME280;39844;52.496;13.482;2023-05-15T04:03:58;100814.34;;;10.74;83.82
53932;BME280;39844;52.496;13.482;2023-05-15T04:06:23;100814.34;;;10.74;83.75
53932;BME280;39844;52.496;13.482;2023-05-15T04:08:49;100811.72;;;10.77;83.80
53932;BME280;39844;52.496;13.482;2023-05-15T04:11:14;100808.19;;;10.79;83.47
53932;BME280;39844;52.496;13.482;2023-05-15T04:13:40;100802.06;;;10.82;83.67
53932;BME280;39844;52.496;13.482;2023-05-15T04:16:05;100802.03;;;10.84;82.78
53932;BME280;39844;52.496;13.482;2023-05-15T04:18:31;100797.66;;;10.87;83.41
53932;BME280;39844;52.496;13.482;2023-05-15T04:20:56;100801.13;;;10.95;83.50
53932;BME280;39844;52.496;13.482;2023-05-15T04:23:21;100801.09;;;11.01;83.12
53932;BME280;39844;52.496;13.482;2023-05-15T04:25:47;100804.56;;;11.06;83.01
53932;BME280;39844;52.496;13.482;2023-05-15T04:28:15;100808.03;;;11.14;83.02
53932;BME280;39844;52.496;13.482;2023-05-15T04:30:41;100801.91;;;11.18;83.06
53932;BME280;39844;52.496;13.482;2023-05-15T04:33:06;100801.88;;;11.20;82.68
53932;BME280;39844;52.496;13.482;2023-05-15T04:35:32;100814.13;;;11.25;82.46
53932;BME280;39844;52.496;13.482;2023-05-15T04:37:57;100803.59;;;11.28;83.03
53932;BME280;39844;52.496;13.482;2023-05-15T04:40:22;100804.47;;;11.27;81.63
53932;BME280;39844;52.496;13.482;2023-05-15T04:42:48;100798.34;;;11.28;82.13
53932;BME280;39844;52.496;13.482;2023-05-15T04:45:13;100803.56;;;11.31;82.49
53932;BME280;39844;52.496;13.482;2023-05-15T04:47:38;100808.81;;;11.31;82.03
53932;BME280;39844;52.496;13.482;2023-05-15T04:50:04;100804.44;;;11.33;82.04
53932;BME280;39844;52.496;13.482;2023-05-15T04:52:30;100800.88;;;11.40;83.00
53932;BME280;39844;52.496;13.482;2023-05-15T04:54:55;100791.19;;;11.47;83.16
53932;BME280;39844;52.496;13.482;2023-05-15T04:57:20;100787.66;;;11.54;82.63
53932;BME280;39844;52.496;13.482;2023-05-15T04:59:46;100795.50;;;11.62;81.02
53932;BME280;39844;52.496;13.482;2023-05-15T05:02:11;100785.81;;;11.70;78.03
53932;BME280;39844;52.496;13.482;2023-05-15T05:04:36;100777.84;;;11.82;76.14
53932;BME280;39844;52.496;13.482;2023-05-15T05:07:02;100784.69;;;11.98;74.67
53932;BME280;39844;52.496;13.482;2023-05-15T05:09:27;100779.31;;;12.13;74.37
53932;BME280;39844;52.496;13.482;2023-05-15T05:11:52;100782.66;;;12.30;73.81
53932;BME280;39844;52.496;13.482;2023-05-15T05:14:18;100776.38;;;12.42;72.24
53932;BME280;39844;52.496;13.482;2023-05-15T05:16:44;100770.09;;;12.53;71.73
53932;BME280;39844;52.496;13.482;2023-05-15T05:19:09;100766.50;;;12.63;71.75
53932;BME280;39844;52.496;13.482;2023-05-15T05:21:34;100768.13;;;12.74;71.40
53932;BME280;39844;52.496;13.482;2023-05-15T05:24:00;100763.59;;;12.85;70.36
53932;BME280;39844;52.496;13.482;2023-05-15T05:26:25;100766.03;;;13.01;69.52
53932;BME280;39844;52.496;13.482;2023-05-15T05:28:51;100759.78;;;13.11;68.35
53932;BME280;39844;52.496;13.482;2023-05-15T05:31:16;100757.03;;;13.17;67.87
53932;BME280;39844;52.496;13.482;2023-05-15T05:33:42;100749.94;;;13.24;66.76
53932;BME280;39844;52.496;13.482;2023-05-15T05:36:07;100750.69;;;13.30;66.49
53932;BME280;39844;52.496;13.482;2023-05-15T05:38:33;100750.66;;;13.34;66.87
53932;BME280;39844;52.496;13.482;2023-05-15T05:40:58;100749.75;;;13.36;67.75
53932;BME280;39844;52.496;13.482;2023-05-15T05:43:24;100747.94;;;13.38;67.72
53932;BME280;39844;52.496;13.482;2023-05-15T05:45:50;100750.53;;;13.41;67.04
53932;BME280;39844;52.496;13.482;2023-05-15T05:48:15;100746.94;;;13.45;67.94
53932;BME280;39844;52.496;13.482;2023-05-15T05:50:40;100745.16;;;13.49;66.85
53932;BME280;39844;52.496;13.482;2023-05-15T05:53:05;100746.81;;;13.53;67.28
53932;BME280;39844;52.496;13.482;2023-05-15T05:55:31;100747.66;;;13.56;66.74
53932;BME280;39844;52.496;13.482;2023-05-15T05:57:56;100739.72;;;13.59;67.71
53932;BME280;39844;52.496;13.482;2023-05-15T06:00:23;100743.16;;;13.63;68.43
53932;BME280;39844;52.496;13.482;2023-05-15T06:02:54;100730.84;;;13.65;69.36
53932;BME280;39844;52.496;13.482;2023-05-15T06:05:20;100733.38;;;13.69;70.14
53932;BME280;39844;52.496;13.482;2023-05-15T06:07:45;100742.09;;;13.74;70.69
53932;BME280;39844;52.496;13.482;2023-05-15T06:10:10;100741.13;;;13.80;70.86
53932;BME280;39844;52.496;13.482;2023-05-15T06:12:36;100738.38;;;13.87;71.35
53932;BME280;39844;52.496;13.482;2023-05-15T06:15:01;100740.78;;;14.00;71.58
53932;BME280;39844;52.496;13.482;2023-05-15T06:17:26;100733.56;;;14.11;71.17
53932;BME280;39844;52.496;13.482;2023-05-15T06:19:52;100723.66;;;14.22;70.56
53932;BME280;39844;52.496;13.482;2023-05-15T06:22:18;100716.38;;;14.36;72.61
53932;BME280;39844;52.496;13.482;2023-05-15T06:24:43;100714.38;;;14.47;71.07
53932;BME280;39844;52.496;13.482;2023-05-15T06:27:09;100707.06;;;14.60;70.29
53932;BME280;39844;52.496;13.482;2023-05-15T06:29:34;100696.22;;;14.73;70.26
53932;BME280;39844;52.496;13.482;2023-05-15T06:31:59;100702.06;;;14.87;68.84
53932;BME280;39844;52.496;13.482;2023-05-15T06:34:25;100699.19;;;14.99;67.75
53932;BME280;39844;52.496;13.482;2023-05-15T06:36:50;100705.84;;;15.15;67.01
53932;BME280;39844;52.496;13.482;2023-05-15T06:39:15;100703.75;;;15.30;67.13
53932;BME280;39844;52.496;13.482;2023-05-15T06:41:41;100702.59;;;15.41;66.66
53932;BME280;39844;52.496;13.482;2023-05-15T06:44:06;100697.06;;;15.52;65.83
53932;BME280;39844;52.496;13.482;2023-05-15T06:46:31;100699.66;;;15.55;63.96
53932;BME280;39844;52.496;13.482;2023-05-15T06:48:56;100701.16;;;15.65;63.44
53932;BME280;39844;52.496;13.482;2023-05-15T06:51:22;100697.31;;;15.76;63.47
53932;BME280;39844;52.496;13.482;2023-05-15T06:53:47;100703.16;;;15.89;61.21
53932;BME280;39844;52.496;13.482;2023-05-15T06:56:12;100689.78;;;15.95;58.70
53932;BME280;39844;52.496;13.482;2023-05-15T06:58:37;100691.19;;;16.08;58.33
53932;BME280;39844;52.496;13.482;2023-05-15T07:01:03;100688.13;;;16.23;57.73
53932;BME280;39844;52.496;13.482;2023-05-15T07:03:29;100686.81;;;16.38;57.71
53932;BME280;39844;52.496;13.482;2023-05-15T07:05:54;100680.34;;;16.48;55.98
53932;BME280;39844;52.496;13.482;2023-05-15T07:08:19;100679.25;;;16.57;54.89
53932;BME280;39844;52.496;13.482;2023-05-15T07:10:45;100682.56;;;16.65;54.46
53932;BME280;39844;52.496;13.482;2023-05-15T07:13:10;100686.69;;;16.75;53.12
53932;BME280;39844;52.496;13.482;2023-05-15T07:15:36;100686.44;;;16.82;53.93
53932;BME280;39844;52.496;13.482;2023-05-15T07:18:01;100678.25;;;16.90;54.77
53932;BME280;39844;52.496;13.482;2023-05-15T07:20:26;100678.94;;;16.96;54.91
53932;BME280;39844;52.496;13.482;2023-05-15T07:22:52;100670.78;;;17.02;55.48
53932;BME280;39844;52.496;13.482;2023-05-15T07:25:17;100672.50;;;17.03;54.50
53932;BME280;39844;52.496;13.482;2023-05-15T07:27:42;100675.13;;;17.05;54.64
53932;BME280;39844;52.496;13.482;2023-05-15T07:30:08;100666.97;;;17.11;57.29
53932;BME280;39844;52.496;13.482;2023-05-15T07:32:33;100673.22;;;17.10;55.59
53932;BME280;39844;52.496;13.482;2023-05-15T07:34:59;100664.31;;;17.11;56.44
53932;BME280;39844;52.496;13.482;2023-05-15T07:37:24;100652.91;;;17.09;53.95
53932;BME280;39844;52.496;13.482;2023-05-15T07:39:49;100663.41;;;17.12;55.29
53932;BME280;39844;52.496;13.482;2023-05-15T07:42:15;100656.28;;;17.14;55.99
53932;BME280;39844;52.496;13.482;2023-05-15T07:44:40;100656.34;;;17.11;55.42
53932;BME280;39844;52.496;13.482;2023-05-15T07:47:05;100653.81;;;17.08;54.36
53932;BME280;39844;52.496;13.482;2023-05-15T07:49:33;100651.19;;;17.08;54.71
53932;BME280;39844;52.496;13.482;2023-05-15T07:51:59;100652.91;;;17.09;53.51
53932;BME280;39844;52.496;13.482;2023-05-15T07:54:24;100645.88;;;17.08;52.20
53932;BME280;39844;52.496;13.482;2023-05-15T07:56:50;100643.78;;;17.18;53.00
53932;BME280;39844;52.496;13.482;2023-05-15T07:59:16;100645.16;;;17.29;52.47
53932;BME280;39844;52.496;13.482;2023-05-15T08:01:41;100646.50;;;17.42;52.40
53932;BME280;39844;52.496;13.482;2023-05-15T08:04:07;100645.38;;;17.49;51.08
53932;BME280;39844;52.496;13.482;2023-05-15T08:06:33;100637.03;;;17.61;52.05
53932;BME280;39844;52.496;13.482;2023-05-15T08:08:59;100632.56;;;17.62;50.07
53932;BME280;39844;52.496;13.482;2023-05-15T08:11:24;100628.03;;;17.65;50.19
53932;BME280;39844;52.496;13.482;2023-05-15T08:13:50;100626.72;;;17.79;51.96
53932;BME280;39844;52.496;13.482;2023-05-15T08:16:15;100620.16;;;17.89;51.89
53932;BME280;39844;52.496;13.482;2023-05-15T08:18:40;100622.63;;;17.93;50.96
53932;BME280;39844;52.496;13.482;2023-05-15T08:21:06;100619.81;;;17.98;50.25
53932;BME280;39844;52.496;13.482;2023-05-15T08:23:31;100616.25;;;17.99;49.68
53932;BME280;39844;52.496;13.482;2023-05-15T08:25:56;100609.19;;;17.98;49.50
53932;BME280;39844;52.496;13.482;2023-05-15T08:28:22;100622.47;;;17.98;49.70
53932;BME280;39844;52.496;13.482;2023-05-15T08:30:47;100608.47;;;17.93;48.92
53932;BME280;39844;52.496;13.482;2023-05-15T08:33:12;100616.63;;;17.88;49.48
53932;BME280;39844;52.496;13.482;2023-05-15T08:35:38;100612.28;;;17.86;50.51
53932;BME280;39844;52.496;13.482;2023-05-15T08:38:03;100605.41;;;17.80;49.67
53932;BME280;39844;52.496;13.482;2023-05-15T08:40:29;100607.31;;;17.77;49.85
53932;BME280;39844;52.496;13.482;2023-05-15T08:42:56;100611.78;;;17.75;50.11
53932;BME280;39844;52.496;13.482;2023-05-15T08:45:24;100600.41;;;17.71;49.70
53932;BME280;39844;52.496;13.482;2023-05-15T08:47:50;100594.13;;;17.74;49.90
53932;BME280;39844;52.496;13.482;2023-05-15T08:50:15;100591.47;;;17.74;50.19
53932;BME280;39844;52.496;13.482;2023-05-15T08:52:43;100595.81;;;17.76;51.49
53932;BME280;39844;52.496;13.482;2023-05-15T08:55:09;100589.63;;;17.76;51.22
53932;BME280;39844;52.496;13.482;2023-05-15T08:57:34;100590.59;;;17.73;51.69
53932;BME280;39844;52.496;13.482;2023-05-15T09:00:02;100596.09;;;17.68;49.86
53932;BME280;39844;52.496;13.482;2023-05-15T09:02:28;100585.56;;;17.65;49.68
53932;BME280;39844;52.496;13.482;2023-05-15T09:04:53;100587.41;;;17.63;48.91
53932;BME280;39844;52.496;13.482;2023-05-15T09:07:19;100583.81;;;17.64;49.84
53932;BME280;39844;52.496;13.482;2023-05-15T09:09:44;100574.16;;;17.63;49.15
53932;BME280;39844;52.496;13.482;2023-05-15T09:12:15;100577.72;;;17.62;49.17
53932;BME280;39844;52.496;13.482;2023-05-15T09:14:44;100568.03;;;17.61;48.69
53932;BME280;39844;52.496;13.482;2023-05-15T09:17:10;100574.94;;;17.65;49.83
53932;BME280;39844;52.496;13.482;2023-05-15T09:19:37;100576.69;;;17.66;48.83
53932;BME280;39844;52.496;13.482;2023-05-15T09:22:18;100572.28;;;17.65;49.16
53932;BME280;39844;52.496;13.482;2023-05-15T09:24:44;100567.78;;;17.67;49.27
53932;BME280;39844;52.496;13.482;2023-05-15T09:27:09;100559.78;;;17.69;49.28
53932;BME280;39844;52.496;13.482;2023-05-15T09:29:36;100563.19;;;17.73;49.36
53932;BME280;39844;52.496;13.482;2023-05-15T09:32:03;100560.44;;;17.76;50.36
53932;BME280;39844;52.496;13.482;2023-05-15T09:34:30;100558.56;;;17.78;50.01
53932;BME280;39844;52.496;13.482;2023-05-15T09:36:55;100556.75;;;17.80;51.07
53932;BME280;39844;52.496;13.482;2023-05-15T09:39:21;100552.25;;;17.82;51.20
53932;BME280;39844;52.496;13.482;2023-05-15T09:41:47;100566.25;;;17.85;52.51
53932;BME280;39844;52.496;13.482;2023-05-15T09:44:19;100557.56;;;17.82;50.11
53932;BME280;39844;52.496;13.482;2023-05-15T09:46:49;100557.59;;;17.80;50.21
53932;BME280;39844;52.496;13.482;2023-05-15T09:49:15;100560.91;;;17.87;52.31
53932;BME280;39844;52.496;13.482;2023-05-15T09:51:42;100558.16;;;17.90;52.14
53932;BME280;39844;52.496;13.482;2023-05-15T09:54:13;100559.88;;;17.91;52.54
53932;BME280;39844;52.496;13.482;2023-05-15T09:56:40;100558.88;;;17.93;52.27
53932;BME280;39844;52.496;13.482;2023-05-15T09:59:11;100556.19;;;17.95;51.25
53932;BME280;39844;52.496;13.482;2023-05-15T10:01:37;100553.47;;;17.96;50.91
53932;BME280;39844;52.496;13.482;2023-05-15T10:04:05;100553.38;;;17.99;50.82
53932;BME280;39844;52.496;13.482;2023-05-15T10:06:38;100554.00;;;18.06;50.84
53932;BME280;39844;52.496;13.482;2023-05-15T10:09:04;100558.28;;;18.10;50.61
53932;BME280;39844;52.496;13.482;2023-05-15T10:11:33;100557.22;;;18.14;51.53
53932;BME280;39844;52.496;13.482;2023-05-15T10:13:58;100550.81;;;18.19;51.46
53932;BME280;39844;52.496;13.482;2023-05-15T10:16:24;100549.84;;;18.22;51.04
53932;BME280;39844;52.496;13.482;2023-05-15T10:18:52;100549.59;;;18.28;51.65
53932;BME280;39844;52.496;13.482;2023-05-15T10:21:19;100551.22;;;18.32;51.75
53932;BME280;39844;52.496;13.482;2023-05-15T10:23:44;100546.78;;;18.33;51.60
53932;BME280;39844;52.496;13.482;2023-05-15T10:26:15;100555.59;;;18.33;51.02
53932;BME280;39844;52.496;13.482;2023-05-15T10:28:45;100556.66;;;18.29;49.60
53932;BME280;39844;52.496;13.482;2023-05-15T10:31:10;100552.38;;;18.25;49.75
53932;BME280;39844;52.496;13.482;2023-05-15T10:33:37;100547.00;;;18.26;51.62
53932;BME280;39844;52.496;13.482;2023-05-15T10:36:04;100538.22;;;18.24;51.02
53932;BME280;39844;52.496;13.482;2023-05-15T10:38:31;100539.50;;;18.14;51.39
53932;BME280;39844;52.496;13.482;2023-05-15T10:40:58;100528.47;;;18.02;51.21
53932;BME280;39844;52.496;13.482;2023-05-15T10:43:25;100528.88;;;17.91;51.33
53932;BME280;39844;52.496;13.482;2023-05-15T10:45:51;100525.34;;;17.91;53.02
53932;BME280;39844;52.496;13.482;2023-05-15T10:48:17;100520.97;;;17.90;53.29
53932;BME280;39844;52.496;13.482;2023-05-15T10:50:43;100518.34;;;17.88;53.61
53932;BME280;39844;52.496;13.482;2023-05-15T10:53:08;100516.84;;;17.81;55.16
53932;BME280;39844;52.496;13.482;2023-05-15T10:55:35;100516.78;;;17.83;56.58
53932;BME280;39844;52.496;13.482;2023-05-15T10:58:00;100522.56;;;17.94;58.47
53932;BME280;39844;52.496;13.482;2023-05-15T11:00:27;100513.97;;;18.10;59.94
53932;BME280;39844;52.496;13.482;2023-05-15T11:02:53;100514.19;;;18.27;60.43
53932;BME280;39844;52.496;13.482;2023-05-15T11:05:18;100513.53;;;18.44;60.78
53932;BME280;39844;52.496;13.482;2023-05-15T11:10:41;100504.97;;;18.59;58.31
53932;BME280;39844;52.496;13.482;2023-05-15T11:13:06;100494.66;;;18.73;57.62
53932;BME280;39844;52.496;13.482;2023-05-15T11:15:42;100499.59;;;18.82;55.68
53932;BME280;39844;52.496;13.482;2023-05-15T11:18:07;100492.16;;;18.90;54.40
53932;BME280;39844;52.496;13.482;2023-05-15T11:20:37;100500.50;;;19.03;54.11
53932;BME280;39844;52.496;13.482;2023-05-15T11:23:03;100493.06;;;19.11;53.10
53932;BME280;39844;52.496;13.482;2023-05-15T11:25:29;100485.41;;;19.24;53.98
53932;BME280;39844;52.496;13.482;2023-05-15T11:27:54;100482.47;;;19.30;52.77
53932;BME280;39844;52.496;13.482;2023-05-15T11:30:21;100487.34;;;19.40;51.69
53932;BME280;39844;52.496;13.482;2023-05-15T11:35:32;100485.00;;;19.73;49.54
53932;BME280;39844;52.496;13.482;2023-05-15T11:38:18;100485.03;;;20.48;48.17
53932;BME280;39844;52.496;13.482;2023-05-15T11:40:57;100476.81;;;21.05;47.32
53932;BME280;39844;52.496;13.482;2023-05-15T11:43:27;100468.31;;;21.33;44.77
53932;BME280;39844;52.496;13.482;2023-05-15T11:45:54;100459.09;;;21.38;44.26
53932;BME280;39844;52.496;13.482;2023-05-15T11:48:19;100447.00;;;21.31;42.08
53932;BME280;39844;52.496;13.482;2023-05-15T11:50:45;100447.38;;;21.41;42.60
53932;BME280;39844;52.496;13.482;2023-05-15T11:53:11;100448.31;;;21.90;43.06
53932;BME280;39844;52.496;13.482;2023-05-15T11:55:38;100453.25;;;22.44;41.94
53932;BME280;39844;52.496;13.482;2023-05-15T11:58:04;100441.22;;;23.12;41.43
53932;BME280;39844;52.496;13.482;2023-05-15T12:00:30;100440.84;;;23.76;39.04
53932;BME280;39844;52.496;13.482;2023-05-15T12:02:56;100440.03;;;24.03;37.74
53932;BME280;39844;52.496;13.482;2023-05-15T12:05:21;100444.03;;;24.38;37.98
53932;BME280;39844;52.496;13.482;2023-05-15T12:07:47;100435.38;;;24.74;36.89
53932;BME280;39844;52.496;13.482;2023-05-15T12:10:13;100426.38;;;25.14;36.37
53932;BME280;39844;52.496;13.482;2023-05-15T12:12:39;100424.16;;;25.46;35.85
53932;BME280;39844;52.496;13.482;2023-05-15T12:15:08;100416.72;;;25.62;33.28
53932;BME280;39844;52.496;13.482;2023-05-15T12:17:35;100413.72;;;25.54;34.06
53932;BME280;39844;52.496;13.482;2023-05-15T12:20:02;100412.63;;;25.69;32.69
53932;BME280;39844;52.496;13.482;2023-05-15T12:22:27;100408.94;;;25.20;31.33
53932;BME280;39844;52.496;13.482;2023-05-15T12:24:52;100415.88;;;24.84;33.37
53932;BME280;39844;52.496;13.482;2023-05-15T12:27:22;100403.38;;;24.44;32.28
53932;BME280;39844;52.496;13.482;2023-05-15T12:29:47;100414.41;;;24.13;33.75
53932;BME280;39844;52.496;13.482;2023-05-15T12:32:13;100404.19;;;24.32;34.86
53932;BME280;39844;52.496;13.482;2023-05-15T12:34:38;100407.06;;;24.82;34.88
53932;BME280;39844;52.496;13.482;2023-05-15T12:37:04;100407.47;;;24.76;33.61
53932;BME280;39844;52.496;13.482;2023-05-15T12:39:29;100402.59;;;24.69;33.72
53932;BME280;39844;52.496;13.482;2023-05-15T12:41:57;100405.56;;;24.64;34.44
53932;BME280;39844;52.496;13.482;2023-05-15T12:44:24;100392.13;;;24.78;34.50
53932;BME280;39844;52.496;13.482;2023-05-15T12:46:52;100393.47;;;25.10;35.33
53932;BME280;39844;52.496;13.482;2023-05-15T12:49:21;100390.72;;;25.62;34.77
53932;BME280;39844;52.496;13.482;2023-05-15T12:51:46;100383.97;;;25.93;33.32